sensor_id;sensor_type;location;lat;lon;timestamp;P1;durP1;ratioP1;P2;durP2;ratioP2
20073;SDS011;10197;54.282;10.078;2023-11-19T00:01:17;9.63;;;7.30;;
20073;SDS011;10197;54.282;10.078;2023-11-19T00:03:44;11.63;;;7.57;;
20073;SDS011;10197;54.282;10.078;2023-11-19T00:06:12;9.45;;;6.95;;
20073;SDS011;10197;54.282;10.078;2023-11-19T00:08:38;8.60;;;6.90;;
20073;SDS011;10197;54.282;10.078;2023-11-19T00:11:05;8.43;;;6.60;;
20073;SDS011;10197;54.282;10.078;2023-11-19T00:13:32;9.93;;;8.13;;
20073;SDS011;10197;54.282;10.078;2023-11-19T00:15:59;9.13;;;8.13;;
20073;SDS011;10197;54.282;10.078;2023-11-19T00:18:25;10.32;;;7.72;;
20073;SDS011;10197;54.282;10.078;2023-11-19T00:20:52;9.82;;;7.90;;
20073;SDS011;10197;54.282;10.078;2023-11-19T00:23:20;9.73;;;7.45;;
20073;SDS011;10197;54.282;10.078;2023-11-19T00:25:48;10.02;;;7.97;;
20073;SDS011;10197;54.282;10.078;2023-11-19T00:28:15;9.63;;;7.60;;
20073;SDS011;10197;54.282;10.078;2023-11-19T00:30:42;9.15;;;7.43;;
20073;SDS011;10197;54.282;10.078;2023-11-19T00:33:08;10.77;;;8.32;;
20073;SDS011;10197;54.282;10.078;2023-11-19T00:35:35;8.80;;;7.40;;
20073;SDS011;10197;54.282;10.078;2023-11-19T00:38:02;10.82;;;7.32;;
20073;SDS011;10197;54.282;10.078;2023-11-19T00:40:30;10.45;;;8.23;;
20073;SDS011;10197;54.282;10.078;2023-11-19T00:42:57;10.32;;;7.88;;
20073;SDS011;10197;54.282;10.078;2023-11-19T00:45:24;11.73;;;7.97;;
20073;SDS011;10197;54.282;10.078;2023-11-19T00:47:52;8.73;;;7.47;;
20073;SDS011;10197;54.282;10.078;2023-11-19T00:50:19;9.35;;;7.53;;
20073;SDS011;10197;54.282;10.078;2023-11-19T00:52:45;9.38;;;7.15;;
20073;SDS011;10197;54.282;10.078;2023-11-19T00:55:12;7.75;;;6.93;;
20073;SDS011;10197;54.282;10.078;2023-11-19T00:57:41;8.80;;;7.07;;
20073;SDS011;10197;54.282;10.078;2023-11-19T01:00:08;7.55;;;6.78;;
20073;SDS011;10197;54.282;10.078;2023-11-19T01:02:43;7.72;;;6.28;;
20073;SDS011;10197;54.282;10.078;2023-11-19T01:05:10;7.18;;;6.18;;
20073;SDS011;10197;54.282;10.078;2023-11-19T01:07:39;7.18;;;6.32;;
20073;SDS011;10197;54.282;10.078;2023-11-19T01:10:06;7.57;;;6.43;;
20073;SDS011;10197;54.282;10.078;2023-11-19T01:12:33;6.57;;;5.95;;
20073;SDS011;10197;54.282;10.078;2023-11-19T01:15:01;6.40;;;5.80;;
20073;SDS011;10197;54.282;10.078;2023-11-19T01:17:28;7.18;;;6.47;;
20073;SDS011;10197;54.282;10.078;2023-11-19T01:19:56;7.28;;;6.22;;
20073;SDS011;10197;54.282;10.078;2023-11-19T01:22:23;6.85;;;6.03;;
20073;SDS011;10197;54.282;10.078;2023-11-19T01:24:50;6.95;;;5.80;;
20073;SDS011;10197;54.282;10.078;2023-11-19T01:27:17;8.02;;;5.47;;
20073;SDS011;10197;54.282;10.078;2023-11-19T01:29:44;6.03;;;5.43;;
20073;SDS011;10197;54.282;10.078;2023-11-19T01:32:12;7.40;;;5.65;;
20073;SDS011;10197;54.282;10.078;2023-11-19T01:34:39;5.72;;;5.05;;
20073;SDS011;10197;54.282;10.078;2023-11-19T01:37:05;4.68;;;4.22;;
20073;SDS011;10197;54.282;10.078;2023-11-19T01:39:34;5.70;;;5.10;;
20073;SDS011;10197;54.282;10.078;2023-11-19T01:42:01;5.63;;;4.97;;
20073;SDS011;10197;54.282;10.078;2023-11-19T01:44:27;5.32;;;4.82;;
20073;SDS011;10197;54.282;10.078;2023-11-19T01:46:54;5.10;;;4.60;;
20073;SDS011;10197;54.282;10.078;2023-11-19T01:49:22;5.40;;;4.90;;
20073;SDS011;10197;54.282;10.078;2023-11-19T01:51:49;4.72;;;4.28;;
20073;SDS011;10197;54.282;10.078;2023-11-19T01:54:16;5.55;;;4.70;;
20073;SDS011;10197;54.282;10.078;2023-11-19T01:56:43;4.65;;;4.25;;
20073;SDS011;10197;54.282;10.078;2023-11-19T01:59:10;4.93;;;4.40;;
20073;SDS011;10197;54.282;10.078;2023-11-19T02:01:38;4.72;;;4.32;;
20073;SDS011;10197;54.282;10.078;2023-11-19T02:04:05;4.13;;;3.72;;
20073;SDS011;10197;54.282;10.078;2023-11-19T02:06:34;4.47;;;4.07;;
20073;SDS011;10197;54.282;10.078;2023-11-19T02:09:01;4.80;;;4.40;;
20073;SDS011;10197;54.282;10.078;2023-11-19T02:11:33;4.28;;;3.83;;
20073;SDS011;10197;54.282;10.078;2023-11-19T02:14:00;4.30;;;3.90;;
20073;SDS011;10197;54.282;10.078;2023-11-19T02:16:29;4.15;;;3.75;;
20073;SDS011;10197;54.282;10.078;2023-11-19T02:18:55;3.53;;;3.22;;
20073;SDS011;10197;54.282;10.078;2023-11-19T02:21:22;3.53;;;3.22;;
20073;SDS011;10197;54.282;10.078;2023-11-19T02:23:51;3.25;;;2.95;;
20073;SDS011;10197;54.282;10.078;2023-11-19T02:26:18;3.70;;;3.20;;
20073;SDS011;10197;54.282;10.078;2023-11-19T02:28:51;3.67;;;2.90;;
20073;SDS011;10197;54.282;10.078;2023-11-19T02:31:18;3.05;;;2.72;;
20073;SDS011;10197;54.282;10.078;2023-11-19T02:33:45;3.03;;;2.72;;
20073;SDS011;10197;54.282;10.078;2023-11-19T02:36:12;2.65;;;2.45;;
20073;SDS011;10197;54.282;10.078;2023-11-19T02:38:39;4.55;;;3.35;;
20073;SDS011;10197;54.282;10.078;2023-11-19T02:41:05;3.08;;;2.78;;
20073;SDS011;10197;54.282;10.078;2023-11-19T02:43:33;4.03;;;3.17;;
20073;SDS011;10197;54.282;10.078;2023-11-19T02:46:02;3.25;;;2.95;;
20073;SDS011;10197;54.282;10.078;2023-11-19T02:48:32;2.70;;;2.50;;
20073;SDS011;10197;54.282;10.078;2023-11-19T02:51:00;2.95;;;2.70;;
20073;SDS011;10197;54.282;10.078;2023-11-19T02:53:28;2.67;;;2.47;;
20073;SDS011;10197;54.282;10.078;2023-11-19T02:55:55;2.60;;;2.40;;
20073;SDS011;10197;54.282;10.078;2023-11-19T02:58:26;2.45;;;2.25;;
20073;SDS011;10197;54.282;10.078;2023-11-19T03:00:54;2.45;;;2.25;;
20073;SDS011;10197;54.282;10.078;2023-11-19T03:03:24;2.53;;;2.30;;
20073;SDS011;10197;54.282;10.078;2023-11-19T03:05:56;2.53;;;2.33;;
20073;SDS011;10197;54.282;10.078;2023-11-19T03:08:23;2.50;;;2.30;;
20073;SDS011;10197;54.282;10.078;2023-11-19T03:10:49;2.25;;;2.08;;
20073;SDS011;10197;54.282;10.078;2023-11-19T03:13:16;2.20;;;2.08;;
20073;SDS011;10197;54.282;10.078;2023-11-19T03:15:43;2.47;;;2.25;;
20073;SDS011;10197;54.282;10.078;2023-11-19T03:18:10;2.00;;;1.88;;
20073;SDS011;10197;54.282;10.078;2023-11-19T03:20:38;2.03;;;1.92;;
20073;SDS011;10197;54.282;10.078;2023-11-19T03:23:05;4.78;;;1.80;;
20073;SDS011;10197;54.282;10.078;2023-11-19T03:25:32;2.00;;;1.90;;
20073;SDS011;10197;54.282;10.078;2023-11-19T03:28:00;2.08;;;1.50;;
20073;SDS011;10197;54.282;10.078;2023-11-19T03:30:27;1.90;;;1.80;;
20073;SDS011;10197;54.282;10.078;2023-11-19T03:32:53;1.80;;;1.70;;
20073;SDS011;10197;54.282;10.078;2023-11-19T03:35:20;1.80;;;1.70;;
20073;SDS011;10197;54.282;10.078;2023-11-19T03:37:48;1.50;;;1.40;;
20073;SDS011;10197;54.282;10.078;2023-11-19T03:40:15;1.80;;;1.70;;
20073;SDS011;10197;54.282;10.078;2023-11-19T03:42:42;1.60;;;1.50;;
20073;SDS011;10197;54.282;10.078;2023-11-19T03:45:09;1.85;;;1.40;;
20073;SDS011;10197;54.282;10.078;2023-11-19T03:47:37;1.60;;;1.50;;
20073;SDS011;10197;54.282;10.078;2023-11-19T03:50:05;1.60;;;1.50;;
20073;SDS011;10197;54.282;10.078;2023-11-19T03:52:33;1.42;;;1.40;;
20073;SDS011;10197;54.282;10.078;2023-11-19T03:55:01;1.50;;;1.40;;
20073;SDS011;10197;54.282;10.078;2023-11-19T03:57:29;1.40;;;1.40;;
20073;SDS011;10197;54.282;10.078;2023-11-19T03:59:56;1.70;;;1.60;;
20073;SDS011;10197;54.282;10.078;2023-11-19T04:02:23;1.50;;;1.40;;
20073;SDS011;10197;54.282;10.078;2023-11-19T04:04:53;1.60;;;1.50;;
20073;SDS011;10197;54.282;10.078;2023-11-19T04:07:20;1.70;;;1.60;;
20073;SDS011;10197;54.282;10.078;2023-11-19T04:09:46;1.42;;;1.40;;
20073;SDS011;10197;54.282;10.078;2023-11-19T04:12:15;1.83;;;1.73;;
20073;SDS011;10197;54.282;10.078;2023-11-19T04:14:41;1.40;;;1.40;;
20073;SDS011;10197;54.282;10.078;2023-11-19T04:17:09;1.65;;;1.55;;
20073;SDS011;10197;54.282;10.078;2023-11-19T04:19:36;1.60;;;1.50;;
20073;SDS011;10197;54.282;10.078;2023-11-19T04:22:03;2.10;;;2.00;;
20073;SDS011;10197;54.282;10.078;2023-11-19T04:24:30;1.85;;;1.73;;
20073;SDS011;10197;54.282;10.078;2023-11-19T04:26:56;1.63;;;1.52;;
20073;SDS011;10197;54.282;10.078;2023-11-19T04:29:25;1.80;;;1.70;;
20073;SDS011;10197;54.282;10.078;2023-11-19T04:31:52;1.55;;;1.45;;
20073;SDS011;10197;54.282;10.078;2023-11-19T04:34:20;1.60;;;1.50;;
20073;SDS011;10197;54.282;10.078;2023-11-19T04:36:47;1.83;;;1.55;;
20073;SDS011;10197;54.282;10.078;2023-11-19T04:39:14;1.73;;;1.63;;
20073;SDS011;10197;54.282;10.078;2023-11-19T04:41:47;1.70;;;1.60;;
20073;SDS011;10197;54.282;10.078;2023-11-19T04:44:14;1.63;;;1.52;;
20073;SDS011;10197;54.282;10.078;2023-11-19T04:46:42;2.25;;;1.60;;
20073;SDS011;10197;54.282;10.078;2023-11-19T04:49:09;1.67;;;1.58;;
20073;SDS011;10197;54.282;10.078;2023-11-19T04:51:37;1.67;;;1.58;;
20073;SDS011;10197;54.282;10.078;2023-11-19T04:54:05;1.80;;;1.70;;
20073;SDS011;10197;54.282;10.078;2023-11-19T04:56:31;1.63;;;1.55;;
20073;SDS011;10197;54.282;10.078;2023-11-19T04:58:58;1.33;;;1.33;;
20073;SDS011;10197;54.282;10.078;2023-11-19T05:01:25;1.30;;;1.30;;
20073;SDS011;10197;54.282;10.078;2023-11-19T05:03:54;1.90;;;1.80;;
20073;SDS011;10197;54.282;10.078;2023-11-19T05:06:25;1.60;;;1.50;;
20073;SDS011;10197;54.282;10.078;2023-11-19T05:08:52;1.70;;;1.60;;
20073;SDS011;10197;54.282;10.078;2023-11-19T05:11:19;1.70;;;1.60;;
20073;SDS011;10197;54.282;10.078;2023-11-19T05:13:46;1.70;;;1.60;;
20073;SDS011;10197;54.282;10.078;2023-11-19T05:16:13;1.80;;;1.70;;
20073;SDS011;10197;54.282;10.078;2023-11-19T05:18:40;1.63;;;1.63;;
20073;SDS011;10197;54.282;10.078;2023-11-19T05:21:08;1.83;;;1.73;;
20073;SDS011;10197;54.282;10.078;2023-11-19T05:23:35;1.70;;;1.60;;
20073;SDS011;10197;54.282;10.078;2023-11-19T05:26:02;1.70;;;1.60;;
20073;SDS011;10197;54.282;10.078;2023-11-19T05:28:29;1.90;;;1.80;;
20073;SDS011;10197;54.282;10.078;2023-11-19T05:30:55;2.15;;;2.05;;
20073;SDS011;10197;54.282;10.078;2023-11-19T05:33:22;1.90;;;1.80;;
20073;SDS011;10197;54.282;10.078;2023-11-19T05:35:49;2.30;;;2.13;;
20073;SDS011;10197;54.282;10.078;2023-11-19T05:38:17;2.95;;;2.67;;
20073;SDS011;10197;54.282;10.078;2023-11-19T05:40:44;3.25;;;2.40;;
20073;SDS011;10197;54.282;10.078;2023-11-19T05:43:13;2.80;;;2.20;;
20073;SDS011;10197;54.282;10.078;2023-11-19T05:45:42;3.08;;;2.78;;
20073;SDS011;10197;54.282;10.078;2023-11-19T05:48:08;3.35;;;3.05;;
20073;SDS011;10197;54.282;10.078;2023-11-19T05:50:35;2.97;;;2.78;;
20073;SDS011;10197;54.282;10.078;2023-11-19T05:53:02;3.00;;;2.67;;
20073;SDS011;10197;54.282;10.078;2023-11-19T05:55:33;3.05;;;2.80;;
20073;SDS011;10197;54.282;10.078;2023-11-19T05:57:59;3.30;;;2.97;;
20073;SDS011;10197;54.282;10.078;2023-11-19T06:00:26;3.60;;;3.15;;
20073;SDS011;10197;54.282;10.078;2023-11-19T06:02:53;3.20;;;2.90;;
20073;SDS011;10197;54.282;10.078;2023-11-19T06:05:19;3.20;;;3.00;;
20073;SDS011;10197;54.282;10.078;2023-11-19T06:07:46;3.45;;;3.10;;
20073;SDS011;10197;54.282;10.078;2023-11-19T06:10:13;3.45;;;3.15;;
20073;SDS011;10197;54.282;10.078;2023-11-19T06:12:43;3.92;;;3.10;;
20073;SDS011;10197;54.282;10.078;2023-11-19T06:15:11;4.22;;;3.38;;
20073;SDS011;10197;54.282;10.078;2023-11-19T06:17:38;5.68;;;4.38;;
20073;SDS011;10197;54.282;10.078;2023-11-19T06:20:05;4.22;;;3.83;;
20073;SDS011;10197;54.282;10.078;2023-11-19T06:22:33;4.70;;;4.00;;
20073;SDS011;10197;54.282;10.078;2023-11-19T06:25:00;5.05;;;4.25;;
20073;SDS011;10197;54.282;10.078;2023-11-19T06:27:32;6.10;;;4.65;;
20073;SDS011;10197;54.282;10.078;2023-11-19T06:30:01;5.75;;;4.60;;
20073;SDS011;10197;54.282;10.078;2023-11-19T06:32:27;7.13;;;6.25;;
20073;SDS011;10197;54.282;10.078;2023-11-19T06:34:54;11.13;;;6.18;;
20073;SDS011;10197;54.282;10.078;2023-11-19T06:37:21;9.00;;;6.32;;
20073;SDS011;10197;54.282;10.078;2023-11-19T06:39:48;7.82;;;6.75;;
20073;SDS011;10197;54.282;10.078;2023-11-19T06:42:15;8.15;;;6.82;;
20073;SDS011;10197;54.282;10.078;2023-11-19T06:44:42;7.85;;;6.72;;
20073;SDS011;10197;54.282;10.078;2023-11-19T06:47:10;8.50;;;7.53;;
20073;SDS011;10197;54.282;10.078;2023-11-19T06:49:37;11.90;;;7.60;;
20073;SDS011;10197;54.282;10.078;2023-11-19T06:52:04;11.77;;;7.97;;
20073;SDS011;10197;54.282;10.078;2023-11-19T06:54:31;10.18;;;9.02;;
20073;SDS011;10197;54.282;10.078;2023-11-19T06:56:58;16.83;;;8.43;;
20073;SDS011;10197;54.282;10.078;2023-11-19T06:59:25;16.77;;;11.00;;
20073;SDS011;10197;54.282;10.078;2023-11-19T07:01:54;15.80;;;10.60;;
20073;SDS011;10197;54.282;10.078;2023-11-19T07:04:22;18.05;;;10.82;;
20073;SDS011;10197;54.282;10.078;2023-11-19T07:06:49;16.08;;;12.45;;
20073;SDS011;10197;54.282;10.078;2023-11-19T07:09:18;13.18;;;10.75;;
20073;SDS011;10197;54.282;10.078;2023-11-19T07:11:45;20.33;;;11.23;;
20073;SDS011;10197;54.282;10.078;2023-11-19T07:14:11;14.13;;;10.82;;
20073;SDS011;10197;54.282;10.078;2023-11-19T07:16:38;13.90;;;10.32;;
20073;SDS011;10197;54.282;10.078;2023-11-19T07:19:05;19.02;;;12.05;;
20073;SDS011;10197;54.282;10.078;2023-11-19T07:21:33;12.57;;;10.32;;
20073;SDS011;10197;54.282;10.078;2023-11-19T07:24:00;18.92;;;12.10;;
20073;SDS011;10197;54.282;10.078;2023-11-19T07:26:27;15.82;;;10.02;;
20073;SDS011;10197;54.282;10.078;2023-11-19T07:28:53;16.58;;;11.38;;
20073;SDS011;10197;54.282;10.078;2023-11-19T07:31:20;17.02;;;12.45;;
20073;SDS011;10197;54.282;10.078;2023-11-19T07:33:49;15.60;;;10.60;;
20073;SDS011;10197;54.282;10.078;2023-11-19T07:36:16;17.75;;;11.35;;
20073;SDS011;10197;54.282;10.078;2023-11-19T07:38:45;17.52;;;10.73;;
20073;SDS011;10197;54.282;10.078;2023-11-19T07:41:11;19.23;;;11.13;;
20073;SDS011;10197;54.282;10.078;2023-11-19T07:43:38;15.32;;;10.90;;
20073;SDS011;10197;54.282;10.078;2023-11-19T07:46:10;18.02;;;13.07;;
20073;SDS011;10197;54.282;10.078;2023-11-19T07:48:38;19.00;;;11.27;;
20073;SDS011;10197;54.282;10.078;2023-11-19T07:51:05;19.73;;;12.20;;
20073;SDS011;10197;54.282;10.078;2023-11-19T07:53:32;24.20;;;13.05;;
20073;SDS011;10197;54.282;10.078;2023-11-19T07:56:00;21.52;;;11.35;;
20073;SDS011;10197;54.282;10.078;2023-11-19T07:58:27;25.05;;;12.07;;
20073;SDS011;10197;54.282;10.078;2023-11-19T08:00:54;24.92;;;10.70;;
20073;SDS011;10197;54.282;10.078;2023-11-19T08:03:21;28.20;;;9.93;;
20073;SDS011;10197;54.282;10.078;2023-11-19T08:05:48;27.17;;;9.55;;
20073;SDS011;10197;54.282;10.078;2023-11-19T08:08:15;22.58;;;8.57;;
20073;SDS011;10197;54.282;10.078;2023-11-19T08:10:42;24.08;;;6.05;;
20073;SDS011;10197;54.282;10.078;2023-11-19T08:13:11;22.23;;;7.55;;
20073;SDS011;10197;54.282;10.078;2023-11-19T08:15:38;29.17;;;7.78;;
20073;SDS011;10197;54.282;10.078;2023-11-19T08:18:05;25.15;;;6.57;;
20073;SDS011;10197;54.282;10.078;2023-11-19T08:20:32;20.70;;;7.10;;
20073;SDS011;10197;54.282;10.078;2023-11-19T08:22:59;21.30;;;6.15;;
20073;SDS011;10197;54.282;10.078;2023-11-19T08:25:25;24.85;;;6.65;;
20073;SDS011;10197;54.282;10.078;2023-11-19T08:27:53;29.45;;;6.60;;
20073;SDS011;10197;54.282;10.078;2023-11-19T08:30:21;29.30;;;7.00;;
20073;SDS011;10197;54.282;10.078;2023-11-19T08:32:48;33.22;;;7.60;;
20073;SDS011;10197;54.282;10.078;2023-11-19T08:35:15;29.75;;;8.23;;
20073;SDS011;10197;54.282;10.078;2023-11-19T08:37:42;36.65;;;8.07;;
20073;SDS011;10197;54.282;10.078;2023-11-19T08:40:11;34.40;;;8.40;;
20073;SDS011;10197;54.282;10.078;2023-11-19T08:42:40;34.65;;;8.85;;
20073;SDS011;10197;54.282;10.078;2023-11-19T08:45:07;37.55;;;9.05;;
20073;SDS011;10197;54.282;10.078;2023-11-19T08:47:36;39.88;;;8.40;;
20073;SDS011;10197;54.282;10.078;2023-11-19T08:50:03;39.17;;;8.23;;
20073;SDS011;10197;54.282;10.078;2023-11-19T08:52:31;38.75;;;9.07;;
20073;SDS011;10197;54.282;10.078;2023-11-19T08:54:58;39.50;;;8.50;;
20073;SDS011;10197;54.282;10.078;2023-11-19T08:57:24;40.90;;;8.93;;
20073;SDS011;10197;54.282;10.078;2023-11-19T08:59:51;39.92;;;8.77;;
20073;SDS011;10197;54.282;10.078;2023-11-19T09:02:17;51.25;;;9.85;;
20073;SDS011;10197;54.282;10.078;2023-11-19T09:04:46;45.35;;;9.10;;
20073;SDS011;10197;54.282;10.078;2023-11-19T09:07:12;39.35;;;8.68;;
20073;SDS011;10197;54.282;10.078;2023-11-19T09:09:39;39.20;;;8.77;;
20073;SDS011;10197;54.282;10.078;2023-11-19T09:12:06;42.72;;;9.80;;
20073;SDS011;10197;54.282;10.078;2023-11-19T09:14:33;39.25;;;8.38;;
20073;SDS011;10197;54.282;10.078;2023-11-19T09:16:59;40.35;;;8.57;;
20073;SDS011;10197;54.282;10.078;2023-11-19T09:19:26;37.22;;;8.13;;
20073;SDS011;10197;54.282;10.078;2023-11-19T09:21:54;44.92;;;10.10;;
20073;SDS011;10197;54.282;10.078;2023-11-19T09:24:21;42.65;;;10.48;;
20073;SDS011;10197;54.282;10.078;2023-11-19T09:26:47;48.85;;;10.63;;
20073;SDS011;10197;54.282;10.078;2023-11-19T09:29:14;49.20;;;9.95;;
20073;SDS011;10197;54.282;10.078;2023-11-19T09:31:41;49.15;;;11.13;;
20073;SDS011;10197;54.282;10.078;2023-11-19T09:34:08;44.55;;;9.68;;
20073;SDS011;10197;54.282;10.078;2023-11-19T09:36:35;46.17;;;10.25;;
20073;SDS011;10197;54.282;10.078;2023-11-19T09:39:03;43.25;;;9.18;;
20073;SDS011;10197;54.282;10.078;2023-11-19T09:41:30;42.30;;;10.32;;
20073;SDS011;10197;54.282;10.078;2023-11-19T09:43:57;40.83;;;9.80;;
20073;SDS011;10197;54.282;10.078;2023-11-19T09:46:24;37.70;;;9.95;;
20073;SDS011;10197;54.282;10.078;2023-11-19T09:48:52;35.63;;;9.50;;
20073;SDS011;10197;54.282;10.078;2023-11-19T09:51:20;41.33;;;9.55;;
20073;SDS011;10197;54.282;10.078;2023-11-19T09:53:47;39.17;;;8.77;;
20073;SDS011;10197;54.282;10.078;2023-11-19T09:56:15;37.47;;;8.40;;
20073;SDS011;10197;54.282;10.078;2023-11-19T09:58:42;42.42;;;9.02;;
20073;SDS011;10197;54.282;10.078;2023-11-19T10:01:09;37.35;;;9.25;;
20073;SDS011;10197;54.282;10.078;2023-11-19T10:03:37;41.92;;;9.73;;
20073;SDS011;10197;54.282;10.078;2023-11-19T10:06:06;30.15;;;8.07;;
20073;SDS011;10197;54.282;10.078;2023-11-19T10:08:33;30.38;;;7.78;;
20073;SDS011;10197;54.282;10.078;2023-11-19T10:11:00;31.98;;;8.07;;
20073;SDS011;10197;54.282;10.078;2023-11-19T10:13:28;37.15;;;8.50;;
20073;SDS011;10197;54.282;10.078;2023-11-19T10:15:55;39.08;;;8.52;;
20073;SDS011;10197;54.282;10.078;2023-11-19T10:18:24;36.60;;;8.48;;
20073;SDS011;10197;54.282;10.078;2023-11-19T10:20:52;35.85;;;8.38;;
20073;SDS011;10197;54.282;10.078;2023-11-19T10:23:20;37.53;;;9.57;;
20073;SDS011;10197;54.282;10.078;2023-11-19T10:25:46;42.63;;;8.93;;
20073;SDS011;10197;54.282;10.078;2023-11-19T10:28:14;35.72;;;8.35;;
20073;SDS011;10197;54.282;10.078;2023-11-19T10:30:43;36.60;;;8.20;;
20073;SDS011;10197;54.282;10.078;2023-11-19T10:33:10;35.15;;;8.38;;
20073;SDS011;10197;54.282;10.078;2023-11-19T10:35:51;30.45;;;7.55;;
20073;SDS011;10197;54.282;10.078;2023-11-19T10:38:18;26.77;;;7.53;;
20073;SDS011;10197;54.282;10.078;2023-11-19T10:40:45;27.17;;;7.07;;
20073;SDS011;10197;54.282;10.078;2023-11-19T10:43:12;27.38;;;6.95;;
20073;SDS011;10197;54.282;10.078;2023-11-19T10:45:39;32.55;;;8.30;;
20073;SDS011;10197;54.282;10.078;2023-11-19T10:48:08;31.90;;;7.30;;
20073;SDS011;10197;54.282;10.078;2023-11-19T10:50:35;35.72;;;8.50;;
20073;SDS011;10197;54.282;10.078;2023-11-19T10:53:03;33.30;;;8.07;;
20073;SDS011;10197;54.282;10.078;2023-11-19T10:55:30;33.53;;;8.43;;
20073;SDS011;10197;54.282;10.078;2023-11-19T10:57:58;35.15;;;8.23;;
20073;SDS011;10197;54.282;10.078;2023-11-19T11:00:28;37.08;;;9.55;;
20073;SDS011;10197;54.282;10.078;2023-11-19T11:02:56;44.05;;;9.52;;
20073;SDS011;10197;54.282;10.078;2023-11-19T11:05:28;41.92;;;9.68;;
20073;SDS011;10197;54.282;10.078;2023-11-19T11:07:55;42.70;;;8.88;;
20073;SDS011;10197;54.282;10.078;2023-11-19T11:10:23;40.85;;;9.77;;
20073;SDS011;10197;54.282;10.078;2023-11-19T11:12:52;58.65;;;12.07;;
20073;SDS011;10197;54.282;10.078;2023-11-19T11:15:24;48.20;;;9.95;;
20073;SDS011;10197;54.282;10.078;2023-11-19T11:17:54;41.85;;;9.57;;
20073;SDS011;10197;54.282;10.078;2023-11-19T11:20:25;50.78;;;10.85;;
20073;SDS011;10197;54.282;10.078;2023-11-19T11:22:57;42.83;;;9.60;;
20073;SDS011;10197;54.282;10.078;2023-11-19T11:25:35;32.92;;;9.05;;
20073;SDS011;10197;54.282;10.078;2023-11-19T11:28:12;44.22;;;10.43;;
20073;SDS011;10197;54.282;10.078;2023-11-19T11:30:46;42.33;;;9.80;;
20073;SDS011;10197;54.282;10.078;2023-11-19T11:33:24;35.55;;;9.38;;
20073;SDS011;10197;54.282;10.078;2023-11-19T11:35:59;41.17;;;8.40;;
20073;SDS011;10197;54.282;10.078;2023-11-19T11:38:35;49.80;;;10.93;;
20073;SDS011;10197;54.282;10.078;2023-11-19T11:41:16;31.05;;;8.75;;
20073;SDS011;10197;54.282;10.078;2023-11-19T11:43:45;46.45;;;9.73;;
20073;SDS011;10197;54.282;10.078;2023-11-19T11:49:11;39.75;;;9.38;;
20073;SDS011;10197;54.282;10.078;2023-11-19T11:54:29;39.50;;;12.88;;
20073;SDS011;10197;54.282;10.078;2023-11-19T11:57:01;46.80;;;12.52;;
20073;SDS011;10197;54.282;10.078;2023-11-19T12:02:18;48.95;;;12.20;;
20073;SDS011;10197;54.282;10.078;2023-11-19T12:04:46;45.17;;;11.52;;
20073;SDS011;10197;54.282;10.078;2023-11-19T12:07:17;49.85;;;12.48;;
20073;SDS011;10197;54.282;10.078;2023-11-19T12:09:50;45.83;;;11.07;;
20073;SDS011;10197;54.282;10.078;2023-11-19T12:12:20;41.45;;;11.15;;
20073;SDS011;10197;54.282;10.078;2023-11-19T12:15:00;46.95;;;10.75;;
20073;SDS011;10197;54.282;10.078;2023-11-19T12:17:36;39.15;;;9.75;;
20073;SDS011;10197;54.282;10.078;2023-11-19T12:20:04;43.60;;;10.80;;
20073;SDS011;10197;54.282;10.078;2023-11-19T12:22:34;35.50;;;9.27;;
20073;SDS011;10197;54.282;10.078;2023-11-19T12:25:03;41.80;;;10.88;;
20073;SDS011;10197;54.282;10.078;2023-11-19T12:27:31;48.53;;;10.07;;
20073;SDS011;10197;54.282;10.078;2023-11-19T12:29:59;36.33;;;9.43;;
20073;SDS011;10197;54.282;10.078;2023-11-19T12:32:25;35.83;;;8.07;;
20073;SDS011;10197;54.282;10.078;2023-11-19T12:34:52;40.35;;;10.15;;
20073;SDS011;10197;54.282;10.078;2023-11-19T12:37:20;31.45;;;7.75;;
20073;SDS011;10197;54.282;10.078;2023-11-19T12:39:47;38.03;;;9.02;;
20073;SDS011;10197;54.282;10.078;2023-11-19T12:42:15;35.78;;;8.85;;
20073;SDS011;10197;54.282;10.078;2023-11-19T12:44:53;35.20;;;8.93;;
20073;SDS011;10197;54.282;10.078;2023-11-19T12:47:21;31.83;;;8.15;;
20073;SDS011;10197;54.282;10.078;2023-11-19T12:49:55;38.42;;;8.27;;
20073;SDS011;10197;54.282;10.078;2023-11-19T12:52:22;29.33;;;8.02;;
20073;SDS011;10197;54.282;10.078;2023-11-19T12:54:49;25.60;;;7.28;;
20073;SDS011;10197;54.282;10.078;2023-11-19T12:57:18;28.17;;;7.13;;
20073;SDS011;10197;54.282;10.078;2023-11-19T12:59:54;27.85;;;7.47;;
20073;SDS011;10197;54.282;10.078;2023-11-19T13:02:21;24.77;;;6.40;;
20073;SDS011;10197;54.282;10.078;2023-11-19T13:04:49;22.75;;;6.55;;
20073;SDS011;10197;54.282;10.078;2023-11-19T13:07:20;26.75;;;6.43;;
20073;SDS011;10197;54.282;10.078;2023-11-19T13:09:47;31.83;;;7.43;;
20073;SDS011;10197;54.282;10.078;2023-11-19T13:12:14;26.75;;;7.43;;
20073;SDS011;10197;54.282;10.078;2023-11-19T13:14:43;30.60;;;8.15;;
20073;SDS011;10197;54.282;10.078;2023-11-19T13:17:15;42.05;;;8.82;;
20073;SDS011;10197;54.282;10.078;2023-11-19T13:19:42;30.58;;;8.13;;
20073;SDS011;10197;54.282;10.078;2023-11-19T13:22:08;28.10;;;9.02;;
20073;SDS011;10197;54.282;10.078;2023-11-19T13:24:35;23.42;;;6.30;;
20073;SDS011;10197;54.282;10.078;2023-11-19T13:27:02;30.60;;;7.10;;
20073;SDS011;10197;54.282;10.078;2023-11-19T13:29:29;32.95;;;7.80;;
20073;SDS011;10197;54.282;10.078;2023-11-19T13:31:57;26.75;;;6.57;;
20073;SDS011;10197;54.282;10.078;2023-11-19T13:34:25;32.15;;;7.80;;
20073;SDS011;10197;54.282;10.078;2023-11-19T13:36:52;30.40;;;7.72;;
20073;SDS011;10197;54.282;10.078;2023-11-19T13:39:18;30.52;;;7.68;;
20073;SDS011;10197;54.282;10.078;2023-11-19T13:41:48;29.10;;;7.00;;
20073;SDS011;10197;54.282;10.078;2023-11-19T13:44:15;32.40;;;8.52;;
20073;SDS011;10197;54.282;10.078;2023-11-19T13:46:44;29.27;;;7.38;;
20073;SDS011;10197;54.282;10.078;2023-11-19T13:49:12;32.80;;;8.85;;
20073;SDS011;10197;54.282;10.078;2023-11-19T13:51:39;31.35;;;7.03;;
20073;SDS011;10197;54.282;10.078;2023-11-19T13:54:05;39.03;;;8.18;;
20073;SDS011;10197;54.282;10.078;2023-11-19T13:56:32;36.17;;;8.68;;
20073;SDS011;10197;54.282;10.078;2023-11-19T13:58:59;36.03;;;8.70;;
20073;SDS011;10197;54.282;10.078;2023-11-19T14:01:25;35.83;;;9.05;;
20073;SDS011;10197;54.282;10.078;2023-11-19T14:03:52;34.75;;;7.63;;
20073;SDS011;10197;54.282;10.078;2023-11-19T14:06:21;35.40;;;7.65;;
20073;SDS011;10197;54.282;10.078;2023-11-19T14:08:47;38.40;;;9.15;;
20073;SDS011;10197;54.282;10.078;2023-11-19T14:11:14;35.05;;;7.53;;
20073;SDS011;10197;54.282;10.078;2023-11-19T14:13:41;38.05;;;8.68;;
20073;SDS011;10197;54.282;10.078;2023-11-19T14:16:08;37.03;;;8.50;;
20073;SDS011;10197;54.282;10.078;2023-11-19T14:18:35;38.58;;;9.43;;
20073;SDS011;10197;54.282;10.078;2023-11-19T14:21:03;42.95;;;10.35;;
20073;SDS011;10197;54.282;10.078;2023-11-19T14:23:32;37.15;;;9.88;;
20073;SDS011;10197;54.282;10.078;2023-11-19T14:25:58;43.85;;;9.68;;
20073;SDS011;10197;54.282;10.078;2023-11-19T14:28:25;34.42;;;11.52;;
20073;SDS011;10197;54.282;10.078;2023-11-19T14:30:52;37.25;;;9.40;;
20073;SDS011;10197;54.282;10.078;2023-11-19T14:33:22;43.80;;;11.52;;
20073;SDS011;10197;54.282;10.078;2023-11-19T14:35:49;40.80;;;11.15;;
20073;SDS011;10197;54.282;10.078;2023-11-19T14:38:15;33.25;;;8.68;;